AirNav   Everest Fuels
 
 1004 users online  

9II4 Cruzan Field Airport
Arcadia, Indiana, USA

GOING TO ARCADIA?


FAA INFORMATION EFFECTIVE 22 APRIL 2021

Location

FAA Identifier: 9II4
Lat/Long: 40-10-21.0000N 085-56-41.0000W
40-10.350000N 085-56.683333W
40.1725000,-85.9447222
(estimated)
Elevation: 845 ft. / 258 m (estimated)
Variation: 03W (1990)
From city: 4 miles E of ARCADIA, IN
Time zone: UTC -4 (UTC -5 during Standard Time)
Zip code: 46034

Airport Operations

Airport use: Private use. Permission required prior to landing
Activation date: 11/1992
Control tower: no
ARTCC: CHICAGO CENTER
FSS: TERRE HAUTE FLIGHT SERVICE STATION
Attendance: UNATNDD
Wind indicator: yes
Segmented circle: no

Airport Communications

WX AWOS-3 at UMP (15 nm S): 119.375 (317-842-3911)
WX AWOS-3 at AID (16 nm E): 128.55 (765-442-1245)
WX AWOS-3PT at TYQ (16 nm SW): 120.725 (317-769-3154)
WX AWOS-3 at MQJ (20 nm S): 124.175 (317-335-3037)

Nearby radio navigation aids

VOR radial/distance  VOR name  Freq  Var
OKKr171/21.9KOKOMO VORTAC113.5005W
MZZr215/22.8MARION VOR/DME108.6003W
MIEr264/25.5MUNCIE VOR/DME114.4003W
VHPr041/29.0BRICKYARD VORTAC116.3001E
GUSr164/29.9GRISSOM VORTAC108.4502W
SHBr349/32.9SHELBYVILLE VOR/DME112.0001E

 
NDB name  Hdg/Dist  Freq  Var  ID
METROPOLITAN022/14.933803WUMP ..- -- .--.
NEW CASTLE307/33.738506WUWL ..- .-- .-..

Airport Services

Runway Information

Runway 9/27

Dimensions: 3300 x 70 ft. / 1006 x 21 m
Surface: turf
RUNWAY 9  RUNWAY 27
Latitude: 40-10.350000N
Longitude: 085-56.683333W
Elevation: 845.0 ft.
Traffic pattern: leftleft
Displaced threshold: no560 ft.
Obstructions: none35 ft. bldg, 140 ft. from runway

Airport Ownership and Management from official FAA records

Ownership: Privately-owned
Owner: ROBERT E. CRUZAN II
26410 S.R. 213
ARCADIA, IN 46030
Phone 317-439-0800
Manager: ROBERT E. CRUZAN II
26410 S.R. 213
ARCADIA, IN 46030
Phone 317-439-0800

Airport Operational Statistics

Aircraft based on the field: 4
Single engine airplanes: 1
Ultralights: 3
    

Additional Remarks

FOR CD CTC CHICAGO ARTCC AT 630-906-8921.

Instrument Procedures

There are no published instrument procedures at 9II4.

Some nearby airports with instrument procedures:

5I4 - Sheridan Airport (12 nm W)
KUMP - Indianapolis Metro Airport (15 nm S)
KAID - Anderson Municipal Airport-Darlington Field (16 nm E)
KTYQ - Indianapolis Executive Airport (16 nm SW)
KMQJ - Indianapolis Regional Airport (20 nm S)
 
Loc | Ops | Rwys | IFR | FBO | Links
Com | Nav | Svcs | Stats | Notes
Area around 9II4 (Cruzan Field Airport)
 
Road maps at: MapQuest Bing Google
 
Aerial photo
No photo
 
Sectional chart

 
Airport distance calculator
Flying to Cruzan Field Airport? Find the distance to fly.

From to 9II4

Sunrise and sunset
Times for 22-Apr-2021
 Local
(UTC-4)
 Zulu
(UTC)
Morning civil twilight06:2810:28
Sunrise06:5610:56
Sunset20:2800:28
Evening civil twilight20:5700:57

Current date and time
Zulu (UTC)  23-Apr-2021 02:15:30
Local (UTC-4)  22-Apr-2021 22:15:30
 
METAR
KAID 
15nm E 
230155Z AUTO 23003KT 10SM CLR 07/M02 A3012 RMK AO2 T00721022
KTYQ 
16nm SW 
230155Z AUTO 23006KT 10SM CLR 05/M01 A3013 RMK AO2 T00511010
KMQJ 
20nm S 
230155Z AUTO 00000KT 10SM CLR 05/00 A3013 RMK AO1
KOKK 
22nm N 
230156Z AUTO 22008KT 10SM CLR 07/M01 A3011 RMK AO2 SLP200 T00721006
KMZZ 
23nm NE 
230155Z AUTO 22007KT 10SM CLR 04/00 A3011 RMK AO2 T00411002
KMIE 
25nm E 
230153Z 23005KT 10SM CLR 08/M02 A3011 RMK AO2 SLP195 T00831022
KEYE 
26nm SW 
230153Z AUTO 21003KT 10SM CLR 07/M03 A3012 RMK AO2 SLP205 T00671028 $
KFKR 
29nm W 
230155Z AUTO 21007KT 10SM BKN050 BKN060 06/M01 A3012 RMK AO2
KGUS 
29nm N 
230156Z AUTO 21007KT 10SM CLR 05/02 A3008 RMK AO2 SLP195 T00450022 $
TAF
KGUS 
29nm N 
222100Z 2221/2403 28015G25KT 9999 FEW060 QNH3006INS BECMG 2223/2224 VRB06KT 9999 FEW050 QNH3007INS BECMG 2315/2316 22012G18KT 9999 SCT050 QNH3000INS BECMG 2323/2324 VRB06KT 9999 SCT045 OVC060 QNH3000INS TX14/2319Z TN03/2309Z LAST NO AMDS AFT 2303 NEXT 2313
KIND 
31nm SW 
221940Z 2220/2324 28013G23KT P6SM SCT060 FM230000 25008KT P6SM FEW250 FM230200 23005KT P6SM SKC FM231200 20006KT P6SM BKN150 FM231700 20010G18KT P6SM SCT060 BKN100 FM232200 20010KT P6SM BKN060
NOTAMs
Click for the latest NOTAMs
NOTAMs are issued by the DoD/FAA and will open in a separate window not controlled by AirNav.

 

 
 

Would you like to see your business listed on this page?

 If your business provides an interesting product or service to pilots, flight crews, aircraft, or users of the Cruzan Field Airport, you should consider listing it here.  To start the listing process, click on the button below
 
Add a business
 

Other Pages about Cruzan Field Airport

Update a link
 
Copyright © AirNav, LLC. All rights reserved. Privacy Policy  Contact